Etusivu
METAR-TAF:

METAR-TAF

Lentoasemat :

Heidrun, Norja

Leveyspiiri: 65-19-30N, Pituuspiiri: 007-19-36E, korkeus merenpinnasta: 0 m

Tämänhetkinen sää

Tämä raportti tehtiin 36 minuuttia sitten, kello 14.20 UTC
Tuuli 15 kn idästä
Lämpötila 2°C
Kosteus 64%
Ilmanpaine 982 hPa
Näkyvyys 10 km tai enemmän
Hajanaisia pilviä 3000 ft:n korkeudessa

METAR: ENHE 131420Z 09015KT 9999 SCT030 02/M04 Q0982 W///S4

Aika: 15:56 (14:56 UTC)

Sääennuste

Tämä raportti tehtiin 56 minuuttia sitten, kello 14.00 UTC
Ennuste voimassa 13. päivästä klo 15 UTC - 13. päivään klo 24 UTC
Tuuli 20 kn idästä
Näkyvyys 10 km tai enemmän
Muutamia pilviä 1500 ft:n korkeudessa
Hajonneita pilviä 3000 ft:n korkeudessa

TAF: ENHE 131400Z 1315/1324 08020KT 9999 FEW015 BKN030

Säähavainnot ja -ennusteet yli 4000 lentoasemalta (METAR- ja TAF-raportit).

Käytössä olevat sääasemat on merkitty karttaan keltaisilla ja punaisilla pisteillä.

Aseta hiiri pisteen päälle nähdäksesi sääaseman nimen.

Klikkaa sitten nähdäksesi säähavainnot ja -ennusteet.

Kartan vaihtaminen: klikkaa mustalla rastilla varustettuja vihreitä pisteitä, niin voit zoomata sisään; viivalla varustettua vihreää pistettä, niin voit zoomata ulos tai vihreitä nuolia, niin pääset viereisille kartoille.


METAR-TAF: